Time;durP1;ratioP1;P1;durP2;ratioP2;P2;SDS_P1;SDS_P2;PMS_P1;PMS_P2;Temp;Humidity;BMP_temperature;BMP_pressure;BME280_temperature;BME280_humidity;BME280_pressure;Samples;Min_cycle;Max_cycle;Signal;HPM_P1;HPM_P2
2022/12/11 00:00:44;;;;;;;59.75;35.88;;;;;;;;;;5090145;28;20032;-78
2022/12/11 00:03:10;;;;;;;52.63;36.33;;;;;;;;;;5108502;28;20028;-78
2022/12/11 00:05:39;;;;;;;52.70;33.83;;;0.70;99.90;;;;;;5108550;28;20028;-78
2022/12/11 00:08:05;;;;;;;59.85;35.67;;;1.30;99.90;;;;;;5090137;28;20043;-77
2022/12/11 00:10:32;;;;;;;44.97;32.78;;;;;;;;;;5090459;28;20024;-78
2022/12/11 00:12:59;;;;;;;49.63;35.85;;;;;;;;;;5090215;28;20028;-78
2022/12/11 00:15:25;;;;;;;53.00;34.72;;;;;;;;;;5107903;28;20050;-77
2022/12/11 00:17:51;;;;;;;51.20;31.27;;;;;;;;;;5090110;28;20028;-78
2022/12/11 00:20:17;;;;;;;48.13;33.67;;;0.60;99.90;;;;;;5090065;28;20036;-77
2022/12/11 00:22:43;;;;;;;53.10;36.63;;;0.60;99.90;;;;;;5089844;28;20142;-77
2022/12/11 00:25:09;;;;;;;44.45;32.55;;;0.70;99.90;;;;;;5108142;28;20031;-77
2022/12/11 00:27:35;;;;;;;45.75;32.67;;;1.20;99.90;;;;;;5090170;28;20054;-77
2022/12/11 00:30:00;;;;;;;50.15;35.78;;;0.60;99.90;;;;;;5107669;28;20551;-77
2022/12/11 00:32:26;;;;;;;61.60;36.08;;;0.80;99.90;;;;;;5107735;28;20040;-78
2022/12/11 00:34:52;;;;;;;50.65;33.03;;;1.80;99.90;;;;;;5056497;28;20028;-76
2022/12/11 00:37:18;;;;;;;43.00;31.67;;;2.20;99.90;;;;;;5089749;28;20067;-75
2022/12/11 00:39:44;;;;;;;37.67;27.83;;;2.00;99.90;;;;;;5072812;28;20036;-76
2022/12/11 00:42:10;;;;;;;49.80;29.60;;;0.70;99.90;;;;;;5073088;28;20035;-76
2022/12/11 00:44:36;;;;;;;49.47;32.83;;;;;;;;;;5107458;28;20036;-76
2022/12/11 00:47:02;;;;;;;44.15;31.23;;;0.70;99.90;;;;;;5089786;28;20047;-76
2022/12/11 00:49:29;;;;;;;49.05;31.10;;;0.70;99.90;;;;;;5072893;28;20028;-75
2022/12/11 00:51:54;;;;;;;48.40;34.42;;;0.80;99.90;;;;;;5089324;28;20040;-76
2022/12/11 00:54:20;;;;;;;41.50;31.63;;;0.80;99.90;;;;;;5089363;28;20039;-76
2022/12/11 00:56:46;;;;;;;45.25;34.65;;;;;;;;;;5072735;28;20032;-75
2022/12/11 00:59:13;;;;;;;42.55;30.00;;;0.80;99.90;;;;;;5107150;28;20093;-76
2022/12/11 01:01:40;;;;;;;49.38;31.27;;;1.80;99.90;;;;;;5072065;28;20441;-76
2022/12/11 01:04:06;;;;;;;45.75;29.92;;;0.80;99.90;;;;;;5055857;28;20024;-76
2022/12/11 01:06:32;;;;;;;38.58;28.25;;;;;;;;;;5107311;28;20028;-75
2022/12/11 01:11:42;;;;;;;47.70;28.98;;;3.10;99.90;;;;;;5088994;28;20032;-75
2022/12/11 01:14:09;;;;;;;40.58;29.83;;;0.80;99.90;;;;;;5088598;28;20028;-75
2022/12/11 01:16:36;;;;;;;41.90;30.48;;;;;;;;;;5106989;28;20020;-75
2022/12/11 01:19:02;;;;;;;47.40;29.95;;;;;;;;;;5107182;28;20425;-76
2022/12/11 01:21:29;;;;;;;40.00;29.52;;;0.90;99.90;;;;;;5088955;28;20024;-76
2022/12/11 01:23:54;;;;;;;46.17;31.90;;;0.80;99.90;;;;;;5072090;28;20027;-75
2022/12/11 01:26:20;;;;;;;46.08;31.23;;;0.80;99.90;;;;;;5088337;28;20028;-76
2022/12/11 01:28:49;;;;;;;48.40;28.88;;;0.80;99.90;;;;;;5067935;28;20029;-75
2022/12/11 01:31:17;;;;;;;47.45;32.38;;;0.80;99.90;;;;;;5086331;28;20036;-75
2022/12/11 01:33:43;;;;;;;50.65;30.67;;;1.30;99.90;;;;;;5068805;28;20101;-75
2022/12/11 01:36:18;;;;;;;50.60;29.23;;;1.70;99.90;;;;;;5086332;28;20467;-76
2022/12/11 01:38:45;;;;;;;38.53;29.05;;;1.00;99.90;;;;;;5068022;28;20049;-75
2022/12/11 01:41:12;;;;;;;34.08;25.52;;;;;;;;;;5085067;28;20025;-76
2022/12/11 01:44:07;;;;;;;39.55;28.63;;;0.80;99.90;;;;;;5075659;28;20036;-75
2022/12/11 01:46:35;;;;;;;43.92;29.30;;;0.80;99.90;;;;;;5088788;28;20035;-75
2022/12/11 01:49:04;;;;;;;41.13;27.30;;;0.90;99.90;;;;;;5106636;28;20028;-75
2022/12/11 01:51:34;;;;;;;35.65;23.08;;;0.90;99.90;;;;;;5106329;28;20463;-75
2022/12/11 01:54:08;;;;;;;36.85;27.35;;;0.80;99.90;;;;;;5106467;28;20032;-75
2022/12/11 01:56:36;;;;;;;48.90;28.60;;;0.90;99.90;;;;;;5106643;28;20092;-75
2022/12/11 01:59:06;;;;;;;44.25;29.80;;;0.90;99.90;;;;;;5106131;28;20028;-75
2022/12/11 02:01:46;;;;;;;44.42;28.02;;;0.90;99.90;;;;;;5106235;28;20062;-75
2022/12/11 02:04:14;;;;;;;42.60;28.92;;;0.90;99.90;;;;;;5088404;28;20051;-75
2022/12/11 02:06:43;;;;;;;35.78;25.35;;;0.90;99.90;;;;;;5106339;28;20028;-75
2022/12/11 02:09:24;;;;;;;38.67;27.58;;;1.70;99.90;;;;;;5106292;28;20028;-75
2022/12/11 02:12:07;;;;;;;40.65;27.75;;;1.00;99.90;;;;;;5106187;28;20024;-75
2022/12/11 02:15:00;;;;;;;39.83;29.60;;;1.00;99.90;;;;;;5105906;28;20020;-75
2022/12/11 02:17:50;;;;;;;35.78;25.90;;;0.90;99.90;;;;;;5106275;28;20024;-75
2022/12/11 02:20:28;;;;;;;35.45;26.25;;;1.00;99.90;;;;;;5088119;28;20483;-75
2022/12/11 02:23:12;;;;;;;34.13;23.73;;;2.50;99.90;;;;;;5106080;28;20028;-75
2022/12/11 02:25:50;;;;;;;36.80;25.58;;;1.00;99.90;;;;;;5071231;28;20038;-75
2022/12/11 02:28:26;;;;;;;30.08;24.08;;;0.90;99.90;;;;;;5105684;28;20031;-75
2022/12/11 02:31:13;;;;;;;34.50;27.15;;;1.10;99.90;;;;;;5087511;28;20032;-75
2022/12/11 02:33:46;;;;;;;42.53;24.08;;;1.00;99.90;;;;;;5087510;28;20035;-75
2022/12/11 02:36:15;;;;;;;44.72;25.50;;;1.00;99.90;;;;;;5106008;28;20024;-75
2022/12/11 02:38:49;;;;;;;31.25;22.13;;;1.00;99.90;;;;;;5106136;28;20036;-75
2022/12/11 02:41:17;;;;;;;30.13;21.25;;;1.00;99.90;;;;;;5110312;28;20032;-75
2022/12/11 02:43:44;;;;;;;30.30;21.38;;;1.00;99.90;;;;;;5110019;28;20043;-75
2022/12/11 02:46:11;;;;;;;29.45;24.27;;;1.00;99.90;;;;;;5091850;28;20032;-75
2022/12/11 02:48:39;;;;;;;26.88;23.55;;;1.00;99.90;;;;;;5091809;28;20035;-75
2022/12/11 02:51:07;;;;;;;34.05;25.23;;;1.00;99.90;;;;;;5109738;28;20124;-75
2022/12/11 02:53:36;;;;;;;36.10;22.05;;;0.90;99.90;;;;;;5074869;28;20021;-75
2022/12/11 02:56:15;;;;;;;29.08;23.63;;;0.90;99.90;;;;;;5075201;28;20027;-75
2022/12/11 02:59:03;;;;;;;30.15;22.02;;;1.00;99.90;;;;;;5109841;28;20028;-75
2022/12/11 03:01:29;;;;;;;24.08;19.63;;;1.00;99.90;;;;;;5109947;28;20043;-75
2022/12/11 03:03:56;;;;;;;32.05;21.88;;;1.00;99.90;;;;;;5091227;28;20028;-75
2022/12/11 03:06:30;;;;;;;29.77;20.80;;;1.00;99.90;;;;;;5091506;28;20040;-75
2022/12/11 03:08:56;;;;;;;35.60;21.30;;;1.00;99.90;;;;;;5091533;28;20036;-75
2022/12/11 03:11:22;;;;;;;25.27;21.33;;;1.00;99.90;;;;;;5091236;28;20031;-75
2022/12/11 03:13:48;;;;;;;27.77;21.30;;;1.00;99.90;;;;;;5071277;28;20059;-75
2022/12/11 03:16:37;;;;;;;27.42;18.00;;;1.00;99.90;;;;;;5082525;28;20024;-75
2022/12/11 03:19:26;;;;;;;24.30;19.98;;;1.00;99.90;;;;;;5103141;28;20036;-75
2022/12/11 03:22:06;;;;;;;32.30;22.50;;;1.00;99.90;;;;;;5071147;28;20048;-75
2022/12/11 03:25:21;;;;;;;25.02;19.27;;;1.00;99.90;;;;;;5071176;28;20028;-75
2022/12/11 03:28:11;;;;;;;25.25;18.02;;;1.10;99.90;;;;;;5063245;28;20037;-75
2022/12/11 03:30:39;;;;;;;;;;;1.10;99.90;;;;;;5089268;28;20067;-75
2022/12/11 03:33:13;;;;;;;24.25;19.55;;;1.00;99.90;;;;;;5094415;28;19961;-75
2022/12/11 03:35:43;;;;;;;23.15;18.27;;;1.40;99.90;;;;;;5108958;28;20035;-75
2022/12/11 03:38:17;;;;;;;22.00;18.02;;;1.00;99.90;;;;;;5108844;28;20040;-75
2022/12/11 03:40:46;;;;;;;21.23;17.48;;;1.00;99.90;;;;;;5109021;28;20032;-75
2022/12/11 03:43:15;;;;;;;19.27;17.48;;;1.10;99.90;;;;;;5090657;28;20051;-75
2022/12/11 03:45:42;;;;;;;16.08;14.25;;;1.00;99.90;;;;;;5109097;28;20080;-75
2022/12/11 03:48:09;;;;;;;20.80;16.40;;;1.00;99.90;;;;;;5108709;28;20043;-75
2022/12/11 03:50:36;;;;;;;22.00;18.27;;;1.70;99.90;;;;;;5107775;28;20032;-75
2022/12/11 03:53:03;;;;;;;20.67;16.23;;;1.00;99.90;;;;;;5073994;28;20036;-75
2022/12/11 03:55:31;;;;;;;21.10;16.88;;;1.20;99.90;;;;;;5108909;28;20027;-75
2022/12/11 03:57:57;;;;;;;21.83;17.63;;;1.00;99.90;;;;;;5090434;28;20020;-75
2022/12/11 04:00:23;;;;;;;20.92;17.05;;;1.00;99.90;;;;;;5090801;28;20085;-74
2022/12/11 04:05:34;;;;;;;16.95;13.40;;;1.90;99.90;;;;;;5090014;28;20039;-75
2022/12/11 04:08:00;;;;;;;16.90;15.25;;;1.00;99.90;;;;;;5089828;28;20039;-75
2022/12/11 04:10:27;;;;;;;28.83;18.90;;;1.00;99.90;;;;;;5108290;28;20039;-74
2022/12/11 04:12:53;;;;;;;18.52;15.23;;;1.00;99.90;;;;;;5090216;28;20024;-75
2022/12/11 04:15:19;;;;;;;20.42;18.00;;;2.20;99.90;;;;;;5073413;28;20127;-75
2022/12/11 04:26:16;;;;;;;16.60;14.93;;;1.40;99.90;;;;;;5092820;28;20051;-75
2022/12/11 04:28:43;;;;;;;21.27;16.27;;;1.00;99.90;;;;;;5090152;28;20020;-75
2022/12/11 04:31:17;;;;;;;24.17;19.40;;;1.00;99.90;;;;;;5073065;28;20039;-75
2022/12/11 04:33:43;;;;;;;24.92;17.00;;;1.10;99.90;;;;;;5107549;28;20024;-75
2022/12/11 04:36:10;;;;;;;23.23;17.40;;;1.00;99.90;;;;;;5107913;28;20039;-75
2022/12/11 04:38:36;;;;;;;18.33;14.63;;;1.10;99.90;;;;;;5072785;28;20039;-74
2022/12/11 04:41:11;;;;;;;22.63;16.70;;;1.00;99.90;;;;;;5089639;28;20402;-75
2022/12/11 04:43:38;;;;;;;22.60;16.33;;;1.00;99.90;;;;;;5107728;28;20024;-75
2022/12/11 04:46:09;;;;;;;20.98;17.27;;;1.10;99.90;;;;;;5107873;28;20039;-75
2022/12/11 04:48:37;;;;;;;20.20;17.02;;;1.00;99.90;;;;;;5087439;28;20479;-75
2022/12/11 04:51:03;;;;;;;18.60;15.85;;;1.00;99.90;;;;;;5052563;28;20040;-75
2022/12/11 04:53:29;;;;;;;19.95;16.15;;;1.00;99.90;;;;;;5087373;28;20080;-75
2022/12/11 04:55:55;;;;;;;18.98;16.60;;;1.10;99.90;;;;;;5088231;28;20025;-75
2022/12/11 04:58:22;;;;;;;24.83;16.73;;;1.00;99.90;;;;;;5089010;28;20185;-75
2022/12/11 05:00:48;;;;;;;17.67;15.88;;;1.10;99.90;;;;;;5089470;28;20052;-74
2022/12/11 05:03:15;;;;;;;18.75;15.45;;;1.10;99.90;;;;;;5071898;28;20040;-74
2022/12/11 05:05:50;;;;;;;18.10;14.40;;;1.10;99.90;;;;;;5072317;28;20042;-75
2022/12/11 05:08:17;;;;;;;22.00;15.15;;;1.10;99.90;;;;;;5107396;28;20032;-75
2022/12/11 05:10:43;;;;;;;23.08;17.75;;;1.10;99.90;;;;;;5085416;28;20028;-75
2022/12/11 05:13:09;;;;;;;25.05;17.27;;;1.00;99.90;;;;;;5071935;28;20035;-75
2022/12/11 05:15:39;;;;;;;26.25;17.75;;;1.00;99.90;;;;;;5076620;28;20024;-74
2022/12/11 05:18:05;;;;;;;18.70;15.45;;;1.00;99.90;;;;;;5084137;28;20028;-75
2022/12/11 05:20:30;;;;;;;19.73;17.60;;;1.00;99.90;;;;;;5098478;28;20031;-75
2022/12/11 05:22:56;;;;;;;18.58;14.57;;;1.00;99.90;;;;;;5073323;28;20028;-75
2022/12/11 05:25:22;;;;;;;17.17;15.25;;;1.10;99.90;;;;;;5069588;28;20056;-75
2022/12/11 05:27:48;;;;;;;18.20;16.00;;;1.10;99.90;;;;;;5067829;28;20039;-74
2022/12/11 05:30:13;;;;;;;18.90;15.88;;;1.10;99.90;;;;;;5102251;28;20027;-75
2022/12/11 05:32:39;;;;;;;20.88;16.52;;;1.10;99.90;;;;;;5078205;28;20047;-75
2022/12/11 05:35:05;;;;;;;19.33;14.60;;;1.10;99.90;;;;;;5073499;28;20032;-74
2022/12/11 05:37:33;;;;;;;21.60;16.38;;;1.20;99.90;;;;;;5083069;28;20047;-74
2022/12/11 05:39:59;;;;;;;19.23;15.98;;;1.10;99.90;;;;;;5087937;28;20032;-75
2022/12/11 05:42:25;;;;;;;20.90;18.00;;;1.10;99.90;;;;;;5087904;28;20036;-75
2022/12/11 05:44:51;;;;;;;18.00;14.30;;;1.10;99.90;;;;;;5078890;28;20029;-75
2022/12/11 05:47:19;;;;;;;18.60;15.95;;;1.00;99.90;;;;;;5041072;28;20036;-75
2022/12/11 05:49:46;;;;;;;19.55;17.63;;;1.00;99.90;;;;;;5065128;28;20020;-75
2022/12/11 05:52:12;;;;;;;16.13;13.95;;;1.10;99.90;;;;;;5054626;28;20120;-75
2022/12/11 05:54:38;;;;;;;17.95;16.08;;;1.10;99.90;;;;;;5067922;28;20148;-75
2022/12/11 05:57:05;;;;;;;17.17;14.85;;;1.20;99.90;;;;;;5051748;28;20024;-75
2022/12/11 05:59:37;;;;;;;17.90;14.45;;;1.10;99.90;;;;;;5067906;28;20088;-75
2022/12/11 06:02:03;;;;;;;17.48;15.45;;;1.10;99.90;;;;;;5073748;28;20490;-74
2022/12/11 06:04:29;;;;;;;16.20;14.48;;;1.10;99.90;;;;;;5081764;28;20058;-74
2022/12/11 06:06:55;;;;;;;22.30;19.02;;;1.10;99.90;;;;;;5087625;28;20062;-75
2022/12/11 06:09:21;;;;;;;19.52;15.10;;;1.10;99.90;;;;;;5067814;28;20606;-74
2022/12/11 06:11:47;;;;;;;17.85;16.05;;;1.10;99.90;;;;;;5101833;28;20418;-74
2022/12/11 06:14:13;;;;;;;22.58;16.65;;;1.10;99.90;;;;;;5087179;28;20036;-75
2022/12/11 06:16:39;;;;;;;20.13;18.00;;;1.10;99.90;;;;;;5038225;28;20039;-75
2022/12/11 06:19:06;;;;;;;28.48;17.17;;;1.10;99.90;;;;;;5101053;28;20082;-75
2022/12/11 06:21:33;;;;;;;20.70;16.60;;;1.10;99.90;;;;;;5085840;28;20036;-75
2022/12/11 06:24:04;;;;;;;17.95;16.05;;;1.10;99.90;;;;;;5076301;28;20039;-74
2022/12/11 06:26:30;;;;;;;20.23;15.05;;;1.10;99.90;;;;;;5072110;28;20032;-74
2022/12/11 06:28:56;;;;;;;19.13;15.95;;;1.10;99.90;;;;;;5105641;28;20024;-75
2022/12/11 06:31:22;;;;;;;18.05;16.15;;;1.10;99.90;;;;;;5104448;28;20450;-75
2022/12/11 06:33:48;;;;;;;22.33;17.48;;;1.10;99.90;;;;;;5086348;28;20028;-75
2022/12/11 06:36:17;;;;;;;22.90;16.45;;;1.20;99.90;;;;;;5080847;28;20032;-75
2022/12/11 06:38:43;;;;;;;18.55;16.17;;;1.00;99.90;;;;;;5080065;28;20402;-75
2022/12/11 06:41:10;;;;;;;21.90;16.73;;;1.20;99.90;;;;;;5073824;28;20036;-75
2022/12/11 06:43:37;;;;;;;22.15;15.35;;;1.20;99.90;;;;;;5095457;28;20024;-75
2022/12/11 06:46:09;;;;;;;17.85;15.52;;;1.10;99.90;;;;;;5108065;28;20028;-75
2022/12/11 06:48:36;;;;;;;16.98;15.13;;;1.10;99.90;;;;;;5108017;28;20027;-75
2022/12/11 06:51:07;;;;;;;18.55;15.23;;;1.10;99.90;;;;;;5088934;28;20039;-75
2022/12/11 06:53:32;;;;;;;22.60;15.80;;;1.10;99.90;;;;;;5105256;28;20033;-75
2022/12/11 06:56:10;;;;;;;18.70;15.40;;;1.30;99.90;;;;;;5087321;28;20115;-75
2022/12/11 06:58:37;;;;;;;18.55;16.23;;;1.10;99.90;;;;;;5104082;28;20467;-75
2022/12/11 07:01:11;;;;;;;16.42;14.77;;;1.10;99.90;;;;;;5087266;28;20021;-75
2022/12/11 07:03:37;;;;;;;16.58;14.60;;;1.10;99.90;;;;;;5104778;28;20029;-75
2022/12/11 07:06:03;;;;;;;24.98;20.08;;;1.20;99.90;;;;;;5086342;28;20237;-75
2022/12/11 07:08:30;;;;;;;23.65;17.73;;;1.20;99.90;;;;;;5102632;28;20097;-75
2022/12/11 07:11:05;;;;;;;22.15;17.08;;;1.10;99.90;;;;;;5087268;28;20032;-75
2022/12/11 07:13:32;;;;;;;17.85;16.15;;;1.10;99.90;;;;;;5084700;28;20024;-75
2022/12/11 07:16:00;;;;;;;19.17;16.95;;;1.10;99.90;;;;;;5086814;28;20035;-75
2022/12/11 07:18:27;;;;;;;21.92;17.25;;;1.10;99.90;;;;;;5105029;28;20024;-75
2022/12/11 07:20:53;;;;;;;20.10;17.80;;;1.10;99.90;;;;;;5104999;28;20040;-75
2022/12/11 07:23:19;;;;;;;22.02;18.73;;;1.00;99.90;;;;;;5086741;28;20030;-75
2022/12/11 07:25:45;;;;;;;24.05;19.77;;;1.00;99.90;;;;;;5072108;28;20055;-75
2022/12/11 07:28:11;;;;;;;29.25;24.50;;;1.00;99.90;;;;;;5090782;28;20027;-75
2022/12/11 07:30:39;;;;;;;19.48;17.58;;;1.00;99.90;;;;;;5090462;28;20051;-75
2022/12/11 07:33:05;;;;;;;21.42;17.02;;;1.00;99.90;;;;;;5090463;28;20032;-75
2022/12/11 07:35:34;;;;;;;19.58;17.13;;;1.00;99.90;;;;;;5090493;28;20038;-75
2022/12/11 07:37:59;;;;;;;28.85;21.40;;;1.00;99.90;;;;;;5108492;28;20074;-75
2022/12/11 07:40:26;;;;;;;82.95;56.10;;;1.00;99.90;;;;;;5108505;28;20020;-75
2022/12/11 07:42:52;;;;;;;37.88;30.17;;;1.00;99.90;;;;;;5090649;28;20020;-75
2022/12/11 07:45:18;;;;;;;35.78;27.20;;;1.00;99.90;;;;;;5108457;28;20052;-74
2022/12/11 07:47:44;;;;;;;31.70;26.65;;;0.90;99.90;;;;;;5054681;28;20028;-75
2022/12/11 07:50:11;;;;;;;34.83;24.30;;;0.90;99.90;;;;;;5090355;28;20032;-75
2022/12/11 07:52:36;;;;;;;37.67;28.63;;;1.00;99.90;;;;;;5070607;28;20035;-75
2022/12/11 07:55:03;;;;;;;27.55;20.27;;;1.00;99.90;;;;;;5073576;28;20032;-75
2022/12/11 07:57:29;;;;;;;23.88;21.45;;;1.00;99.90;;;;;;5108280;28;20042;-75
2022/12/11 07:59:55;;;;;;;28.40;21.23;;;1.00;99.90;;;;;;5089818;28;20060;-75
2022/12/11 08:02:21;;;;;;;31.55;21.75;;;1.00;99.90;;;;;;5089538;28;20087;-75
2022/12/11 08:04:47;;;;;;;44.78;34.22;;;1.10;99.90;;;;;;5089716;28;20028;-74
2022/12/11 08:07:12;;;;;;;47.40;33.08;;;1.10;99.90;;;;;;5073450;28;20036;-75
2022/12/11 08:09:38;;;;;;;31.02;23.17;;;1.00;99.90;;;;;;5089960;28;20028;-75
2022/12/11 08:12:05;;;;;;;21.17;17.67;;;1.00;99.90;;;;;;5108325;28;20028;-75
2022/12/11 08:14:30;;;;;;;22.08;17.48;;;1.00;99.90;;;;;;5089695;28;20032;-75
2022/12/11 08:16:56;;;;;;;22.88;19.20;;;1.00;99.90;;;;;;5070508;28;20030;-75
2022/12/11 08:19:23;;;;;;;27.77;19.50;;;1.00;99.90;;;;;;5073688;28;20047;-75
2022/12/11 08:21:49;;;;;;;23.70;20.08;;;1.00;99.90;;;;;;5082718;28;20050;-75
2022/12/11 08:24:19;;;;;;;19.25;16.73;;;1.00;99.90;;;;;;5077541;28;20024;-75
2022/12/11 08:26:45;;;;;;;22.52;19.92;;;1.00;99.90;;;;;;5076967;28;20048;-75
2022/12/11 08:29:11;;;;;;;22.45;17.20;;;1.00;99.90;;;;;;5092750;28;20398;-75
2022/12/11 08:31:38;;;;;;;26.15;16.00;;;1.10;99.90;;;;;;5080659;28;20025;-75
2022/12/11 08:34:04;;;;;;;18.42;16.33;;;1.10;99.90;;;;;;5100054;28;20027;-74
2022/12/11 08:36:30;;;;;;;17.92;16.13;;;1.00;99.90;;;;;;5098873;28;20475;-74
2022/12/11 08:38:57;;;;;;;22.25;16.85;;;1.10;99.90;;;;;;5089579;28;20036;-74
2022/12/11 08:41:25;;;;;;;18.70;15.20;;;1.10;99.90;;;;;;5107451;28;20028;-74
2022/12/11 08:43:53;;;;;;;17.00;14.57;;;1.20;99.90;;;;;;5070879;28;20058;-74
2022/12/11 08:46:21;;;;;;;19.50;15.98;;;1.10;99.90;;;;;;5088080;28;20032;-75
2022/12/11 08:48:47;;;;;;;15.63;13.68;;;1.10;99.90;;;;;;5089570;28;20028;-74
2022/12/11 08:51:15;;;;;;;15.38;13.75;;;1.10;99.90;;;;;;5107290;28;20825;-74
2022/12/11 08:53:42;;;;;;;19.17;16.15;;;1.20;99.90;;;;;;5072041;28;20091;-74
2022/12/11 08:56:18;;;;;;;20.70;17.25;;;1.20;99.90;;;;;;5088764;28;20054;-74
2022/12/11 08:58:45;;;;;;;21.00;18.70;;;1.20;99.90;;;;;;5107162;28;20035;-75
2022/12/11 09:01:17;;;;;;;20.77;14.90;;;1.30;99.90;;;;;;5089351;28;20028;-75
2022/12/11 09:03:43;;;;;;;18.38;15.52;;;1.30;99.90;;;;;;5107696;28;20081;-75
2022/12/11 09:06:12;;;;;;;19.77;13.85;;;1.40;99.90;;;;;;5088107;28;20032;-75
2022/12/11 09:08:39;;;;;;;17.88;15.77;;;1.30;99.90;;;;;;5088213;28;20024;-75
2022/12/11 09:11:11;;;;;;;14.65;13.15;;;1.30;99.90;;;;;;5088902;28;20036;-75
2022/12/11 09:13:38;;;;;;;15.18;13.55;;;1.30;99.90;;;;;;5087503;28;20032;-75
2022/12/11 09:16:08;;;;;;;19.52;13.63;;;1.30;99.90;;;;;;5106302;28;20057;-75
2022/12/11 09:18:34;;;;;;;20.50;15.75;;;1.30;99.90;;;;;;5088896;28;20024;-76
2022/12/11 09:21:05;;;;;;;15.23;13.70;;;1.40;99.90;;;;;;5106678;28;20035;-75
2022/12/11 09:23:32;;;;;;;17.35;13.82;;;1.40;99.90;;;;;;5107171;28;20036;-76
2022/12/11 09:25:58;;;;;;;22.42;15.00;;;1.40;99.90;;;;;;5088198;28;20036;-75
2022/12/11 09:28:24;;;;;;;22.55;14.00;;;1.40;99.90;;;;;;5106148;28;20032;-76
2022/12/11 09:30:50;;;;;;;22.77;16.08;;;1.50;99.90;;;;;;5105084;28;20117;-75
2022/12/11 09:33:17;;;;;;;17.23;15.15;;;1.40;99.90;;;;;;5104183;28;20047;-75
2022/12/11 09:35:43;;;;;;;28.20;17.65;;;1.40;99.90;;;;;;5068066;28;20024;-75
2022/12/11 09:38:09;;;;;;;23.67;16.67;;;1.40;99.90;;;;;;5088134;28;20109;-76
2022/12/11 09:40:40;;;;;;;17.58;15.70;;;1.40;99.90;;;;;;5086893;28;20043;-76
2022/12/11 09:43:33;;;;;;;19.67;15.05;;;1.50;99.90;;;;;;5071239;28;20024;-76
2022/12/11 09:46:01;;;;;;;16.15;14.25;;;1.50;99.90;;;;;;5105072;28;20048;-76
2022/12/11 09:48:30;;;;;;;14.10;12.35;;;1.50;99.90;;;;;;5106247;28;20031;-76
2022/12/11 09:51:01;;;;;;;16.70;12.90;;;1.50;99.90;;;;;;5105109;28;20044;-76
2022/12/11 09:53:34;;;;;;;19.27;17.25;;;1.50;99.90;;;;;;5105228;28;20016;-75
2022/12/11 09:56:13;;;;;;;21.77;15.95;;;1.40;99.90;;;;;;5071695;28;20156;-75
2022/12/11 09:59:04;;;;;;;18.57;13.10;;;1.40;99.90;;;;;;5106496;28;20023;-75
2022/12/11 10:01:48;;;;;;;16.63;14.77;;;1.40;99.90;;;;;;5088260;28;20028;-75
2022/12/11 10:04:40;;;;;;;18.88;16.02;;;1.40;99.90;;;;;;5106540;28;20450;-75
2022/12/11 10:07:14;;;;;;;18.25;14.63;;;1.40;99.90;;;;;;5085524;28;20028;-76
2022/12/11 10:09:55;;;;;;;15.25;13.68;;;1.50;99.90;;;;;;5088253;28;20452;-76
2022/12/11 10:12:43;;;;;;;15.75;14.07;;;1.50;99.90;;;;;;5105732;28;20169;-75
2022/12/11 10:15:34;;;;;;;16.52;14.27;;;1.50;99.90;;;;;;5087704;28;20054;-75
2022/12/11 10:18:01;;;;;;;16.45;13.55;;;1.60;99.90;;;;;;5087387;28;20494;-75
2022/12/11 10:20:35;;;;;;;14.80;12.85;;;1.60;99.90;;;;;;5105662;28;20012;-75
2022/12/11 10:23:03;;;;;;;21.00;14.05;;;1.60;99.90;;;;;;5087652;28;20080;-75
2022/12/11 10:25:34;;;;;;;18.80;12.73;;;1.60;99.90;;;;;;5087074;28;20067;-76
2022/12/11 10:28:10;;;;;;;18.35;11.82;;;1.60;99.90;;;;;;5087117;28;20024;-75
2022/12/11 10:30:38;;;;;;;15.85;11.65;;;1.60;99.90;;;;;;5066656;28;20024;-75
2022/12/11 10:33:21;;;;;;;15.52;13.27;;;1.60;99.90;;;;;;5084167;28;20055;-76
2022/12/11 10:35:52;;;;;;;14.63;12.48;;;1.70;99.90;;;;;;5068701;28;20019;-76
2022/12/11 10:38:28;;;;;;;17.77;14.30;;;1.70;99.90;;;;;;5105679;28;20046;-76
2022/12/11 10:41:03;;;;;;;24.13;14.57;;;1.80;99.90;;;;;;5087764;28;20036;-76
2022/12/11 10:43:37;;;;;;;17.45;13.48;;;1.80;99.90;;;;;;5105984;28;20456;-75
2022/12/11 10:46:05;;;;;;;22.67;15.98;;;1.70;99.90;;;;;;5087711;28;20036;-75
2022/12/11 10:48:32;;;;;;;17.95;15.68;;;1.70;99.90;;;;;;5087676;28;20095;-76
2022/12/11 10:51:04;;;;;;;17.25;13.82;;;1.80;99.90;;;;;;5087797;28;20040;-75
2022/12/11 10:53:33;;;;;;;19.77;17.60;;;1.80;99.90;;;;;;5087811;28;20029;-76
2022/12/11 10:56:00;;;;;;;19.08;15.80;;;1.90;99.90;;;;;;5087496;28;20024;-75
2022/12/11 10:58:32;;;;;;;15.93;13.25;;;2.10;99.90;;;;;;5105981;28;20028;-76
2022/12/11 11:01:09;;;;;;;130.35;75.72;;;2.10;99.90;;;;;;5108463;28;20032;-75
2022/12/11 11:03:42;;;;;;;18.23;15.02;;;2.30;99.90;;;;;;5109736;28;20028;-75
2022/12/11 11:06:16;;;;;;;39.33;31.10;;;2.20;99.90;;;;;;5091352;28;20031;-76
2022/12/11 11:08:45;;;;;;;20.60;15.50;;;2.20;99.90;;;;;;5091445;28;20042;-75
2022/12/11 11:11:29;;;;;;;15.95;14.27;;;2.40;99.90;;;;;;5109623;28;20023;-75
2022/12/11 11:14:12;;;;;;;16.35;14.60;;;2.20;99.90;;;;;;5109568;28;20028;-77
2022/12/11 11:16:39;;;;;;;24.50;17.33;;;2.10;99.90;;;;;;5109795;28;20561;-76
2022/12/11 11:19:06;;;;;;;19.33;14.77;;;2.20;99.90;;;;;;5091013;28;20024;-78
2022/12/11 11:21:33;;;;;;;16.35;14.82;;;2.20;99.90;;;;;;5091141;28;20092;-76
2022/12/11 11:23:59;;;;;;;16.90;15.23;;;2.20;99.90;;;;;;5074497;28;20035;-76
2022/12/11 11:26:25;;;;;;;14.68;12.70;;;2.50;99.90;;;;;;5109288;28;20034;-76
2022/12/11 11:28:56;;;;;;;16.90;14.45;;;2.50;99.90;;;;;;5109214;28;20036;-77
2022/12/11 11:31:33;;;;;;;12.60;10.75;;;2.30;99.90;;;;;;5091083;28;20043;-76
2022/12/11 11:34:07;;;;;;;12.82;11.32;;;2.20;99.90;;;;;;5091139;28;20035;-77
2022/12/11 11:36:35;;;;;;;15.18;13.57;;;2.10;99.90;;;;;;5108987;28;20024;-76
2022/12/11 11:39:33;;;;;;;27.92;24.92;;;2.10;99.90;;;;;;5074159;28;20062;-76
2022/12/11 11:42:26;;;;;;;21.27;18.98;;;2.20;99.90;;;;;;5108186;28;20051;-76
2022/12/11 11:44:58;;;;;;;25.17;22.55;;;2.30;99.90;;;;;;5070812;28;20522;-76
2022/12/11 11:47:33;;;;;;;22.63;20.00;;;2.40;99.90;;;;;;5070576;28;20131;-77
2022/12/11 11:50:13;;;;;;;20.58;18.65;;;2.50;99.90;;;;;;5087608;28;20087;-77
2022/12/11 11:52:43;;;;;;;14.52;13.13;;;2.60;99.90;;;;;;5088320;28;20025;-77
2022/12/11 11:55:27;;;;;;;11.03;9.90;;;2.80;99.90;;;;;;5067722;28;20080;-77
2022/12/11 11:57:58;;;;;;;15.38;13.95;;;3.00;99.90;;;;;;5058735;28;20289;-77
2022/12/11 12:00:27;;;;;;;13.57;12.18;;;3.10;99.90;;;;;;5084730;28;20027;-77
2022/12/11 12:03:03;;;;;;;11.38;10.10;;;3.10;99.90;;;;;;5085456;28;20058;-77
2022/12/11 12:05:54;;;;;;;12.93;10.98;;;2.90;99.90;;;;;;5078494;28;20032;-76
2022/12/11 12:08:36;;;;;;;13.02;11.65;;;2.50;99.90;;;;;;5088048;28;20029;-77
2022/12/11 12:11:29;;;;;;;12.30;11.00;;;2.40;99.90;;;;;;5077395;28;20039;-76
2022/12/11 12:14:01;;;;;;;14.35;13.02;;;2.30;99.90;;;;;;5068861;28;20045;-77
2022/12/11 12:16:33;;;;;;;12.70;11.50;;;2.50;99.90;;;;;;5072896;28;20038;-77
2022/12/11 12:19:23;;;;;;;15.13;13.60;;;2.60;99.90;;;;;;5075944;28;20051;-77
2022/12/11 12:21:51;;;;;;;11.33;9.47;;;2.70;99.90;;;;;;5077618;28;20035;-76
2022/12/11 12:24:27;;;;;;;15.70;13.00;;;2.70;99.90;;;;;;5072797;28;20028;-77
2022/12/11 12:26:56;;;;;;;16.13;14.50;;;2.80;99.90;;;;;;5077454;28;20029;-77
2022/12/11 12:29:53;;;;;;;23.85;21.60;;;2.80;99.90;;;;;;5068154;28;20043;-77
2022/12/11 12:32:41;;;;;;;15.55;13.93;;;2.70;99.90;;;;;;5099937;28;20036;-79
2022/12/11 12:35:12;;;;;;;46.90;39.15;;;2.70;99.90;;;;;;5062198;28;20028;-77
2022/12/11 12:37:44;;;;;;;29.05;24.77;;;2.60;99.90;;;;;;5093632;28;20062;-77
2022/12/11 12:40:19;;;;;;;27.85;21.65;;;2.40;99.90;;;;;;5107692;28;20028;-77
2022/12/11 12:43:13;;;;;;;22.58;17.70;;;2.40;99.90;;;;;;5089829;28;20039;-77
2022/12/11 12:45:52;;;;;;;22.63;18.45;;;2.50;99.90;;;;;;5108027;28;20051;-77
2022/12/11 12:48:20;;;;;;;25.50;20.48;;;2.50;99.90;;;;;;5069416;28;20118;-79
2022/12/11 12:50:49;;;;;;;54.28;45.90;;;2.40;99.90;;;;;;5106367;28;20028;-77
2022/12/11 12:53:19;;;;;;;22.85;13.85;;;2.50;99.90;;;;;;5072655;28;20024;-77
2022/12/11 12:55:46;;;;;;;14.45;12.55;;;2.20;99.90;;;;;;5107976;28;20024;-76
2022/12/11 12:58:41;;;;;;;12.00;10.52;;;2.00;99.90;;;;;;5089278;28;20103;-77
2022/12/11 13:01:28;;;;;;;15.70;14.25;;;2.00;99.90;;;;;;5107770;28;20024;-77
2022/12/11 13:03:54;;;;;;;13.95;12.50;;;2.00;99.90;;;;;;5107025;28;20040;-77
2022/12/11 13:06:37;;;;;;;22.38;17.90;;;1.80;99.90;;;;;;5072548;28;20142;-76
2022/12/11 13:09:16;;;;;;;22.60;20.15;;;1.80;99.90;;;;;;5089113;28;20032;-76
2022/12/11 13:11:44;;;;;;;37.88;31.05;;;1.80;99.90;;;;;;5107246;28;20042;-79